sensor_id;sensor_type;location;lat;lon;timestamp;pressure;altitude;pressure_sealevel;temperature;humidity
51239;BME280;38154;47.548;18.828;2024-03-08T00:01:06;75911.03;;;-145.55;100.00
51239;BME280;38154;47.548;18.828;2024-03-08T00:03:32;75913.03;;;-145.55;100.00
51239;BME280;38154;47.548;18.828;2024-03-08T00:05:58;75915.03;;;-145.55;100.00
51239;BME280;38154;47.548;18.828;2024-03-08T00:08:23;75922.97;;;-145.55;100.00
51239;BME280;38154;47.548;18.828;2024-03-08T00:10:50;75926.97;;;-145.55;100.00
51239;BME280;38154;47.548;18.828;2024-03-08T00:13:15;75928.94;;;-145.55;100.00
51239;BME280;38154;47.548;18.828;2024-03-08T00:15:41;75934.94;;;-145.55;100.00
51239;BME280;38154;47.548;18.828;2024-03-08T00:18:07;75938.91;;;-145.55;100.00
51239;BME280;38154;47.548;18.828;2024-03-08T00:20:32;75940.91;;;-145.55;100.00
51239;BME280;38154;47.548;18.828;2024-03-08T00:22:58;75928.94;;;-145.55;100.00
51239;BME280;38154;47.548;18.828;2024-03-08T00:25:24;75928.94;;;-145.55;100.00
51239;BME280;38154;47.548;18.828;2024-03-08T00:27:50;75919.00;;;-145.55;100.00
51239;BME280;38154;47.548;18.828;2024-03-08T00:30:15;75919.00;;;-145.55;100.00
51239;BME280;38154;47.548;18.828;2024-03-08T00:32:41;75934.94;;;-145.55;100.00
51239;BME280;38154;47.548;18.828;2024-03-08T00:35:07;75934.94;;;-145.55;100.00
51239;BME280;38154;47.548;18.828;2024-03-08T00:37:32;75930.94;;;-145.55;100.00
51239;BME280;38154;47.548;18.828;2024-03-08T00:39:59;75926.97;;;-145.55;100.00
51239;BME280;38154;47.548;18.828;2024-03-08T00:42:25;75932.94;;;-145.55;100.00
51239;BME280;38154;47.548;18.828;2024-03-08T00:44:51;75940.91;;;-145.55;100.00
51239;BME280;38154;47.548;18.828;2024-03-08T00:47:17;75938.91;;;-145.55;100.00
51239;BME280;38154;47.548;18.828;2024-03-08T00:49:42;75942.88;;;-145.55;100.00
51239;BME280;38154;47.548;18.828;2024-03-08T00:52:08;75934.94;;;-145.55;100.00
51239;BME280;38154;47.548;18.828;2024-03-08T00:54:34;75934.94;;;-145.55;100.00
51239;BME280;38154;47.548;18.828;2024-03-08T00:57:01;75926.97;;;-145.55;100.00
51239;BME280;38154;47.548;18.828;2024-03-08T00:59:28;75930.94;;;-145.55;100.00
51239;BME280;38154;47.548;18.828;2024-03-08T01:01:54;75924.97;;;-145.55;100.00
51239;BME280;38154;47.548;18.828;2024-03-08T01:04:20;75928.94;;;-145.55;100.00
51239;BME280;38154;47.548;18.828;2024-03-08T01:06:46;75932.94;;;-145.55;100.00
51239;BME280;38154;47.548;18.828;2024-03-08T01:09:12;75921.00;;;-145.55;100.00
51239;BME280;38154;47.548;18.828;2024-03-08T01:11:38;75913.03;;;-145.55;100.00
51239;BME280;38154;47.548;18.828;2024-03-08T01:14:04;75901.09;;;-145.55;100.00
51239;BME280;38154;47.548;18.828;2024-03-08T01:16:30;75893.13;;;-145.55;100.00
51239;BME280;38154;47.548;18.828;2024-03-08T01:18:56;75895.13;;;-145.55;100.00
51239;BME280;38154;47.548;18.828;2024-03-08T01:21:22;75899.09;;;-145.55;100.00
51239;BME280;38154;47.548;18.828;2024-03-08T01:23:47;75901.09;;;-145.55;100.00
51239;BME280;38154;47.548;18.828;2024-03-08T01:26:13;75891.13;;;-145.55;100.00
51239;BME280;38154;47.548;18.828;2024-03-08T01:28:40;75875.22;;;-145.55;100.00
51239;BME280;38154;47.548;18.828;2024-03-08T01:31:06;75871.22;;;-145.55;100.00
51239;BME280;38154;47.548;18.828;2024-03-08T01:33:31;75863.28;;;-145.55;100.00
51239;BME280;38154;47.548;18.828;2024-03-08T01:35:57;75877.19;;;-145.55;100.00
51239;BME280;38154;47.548;18.828;2024-03-08T01:38:23;75867.25;;;-145.55;100.00
51239;BME280;38154;47.548;18.828;2024-03-08T01:40:49;75869.25;;;-145.55;100.00
51239;BME280;38154;47.548;18.828;2024-03-08T01:45:44;75871.22;;;-145.55;100.00
51239;BME280;38154;47.548;18.828;2024-03-08T01:48:09;75877.19;;;-145.55;100.00
51239;BME280;38154;47.548;18.828;2024-03-08T01:50:35;75881.19;;;-145.55;100.00
51239;BME280;38154;47.548;18.828;2024-03-08T01:53:02;75883.19;;;-145.55;100.00
51239;BME280;38154;47.548;18.828;2024-03-08T01:55:28;75875.22;;;-145.55;100.00
51239;BME280;38154;47.548;18.828;2024-03-08T01:57:54;75867.25;;;-145.55;100.00
51239;BME280;38154;47.548;18.828;2024-03-08T02:00:20;75883.19;;;-145.55;100.00
51239;BME280;38154;47.548;18.828;2024-03-08T02:02:46;75867.25;;;-145.55;100.00
51239;BME280;38154;47.548;18.828;2024-03-08T02:05:12;75879.19;;;-145.55;100.00
51239;BME280;38154;47.548;18.828;2024-03-08T02:07:41;75883.19;;;-145.55;100.00
51239;BME280;38154;47.548;18.828;2024-03-08T02:10:09;75901.09;;;-145.55;100.00
51239;BME280;38154;47.548;18.828;2024-03-08T02:12:35;75903.06;;;-145.55;100.00
51239;BME280;38154;47.548;18.828;2024-03-08T02:15:01;75905.06;;;-145.55;100.00
51239;BME280;38154;47.548;18.828;2024-03-08T02:17:26;75905.06;;;-145.55;100.00
51239;BME280;38154;47.548;18.828;2024-03-08T02:19:52;75907.06;;;-145.55;100.00
51239;BME280;38154;47.548;18.828;2024-03-08T02:22:18;75899.09;;;-145.55;100.00
51239;BME280;38154;47.548;18.828;2024-03-08T02:24:44;75903.06;;;-145.55;100.00
51239;BME280;38154;47.548;18.828;2024-03-08T02:27:10;75919.00;;;-145.55;100.00
51239;BME280;38154;47.548;18.828;2024-03-08T02:29:37;75911.03;;;-145.55;100.00
51239;BME280;38154;47.548;18.828;2024-03-08T02:32:06;75911.03;;;-145.55;100.00
51239;BME280;38154;47.548;18.828;2024-03-08T02:34:31;75909.06;;;-145.55;100.00
51239;BME280;38154;47.548;18.828;2024-03-08T02:36:57;75915.03;;;-145.55;100.00
51239;BME280;38154;47.548;18.828;2024-03-08T02:39:23;75899.09;;;-145.55;100.00
51239;BME280;38154;47.548;18.828;2024-03-08T02:41:48;75917.00;;;-145.55;100.00
51239;BME280;38154;47.548;18.828;2024-03-08T02:44:14;75907.06;;;-145.55;100.00
51239;BME280;38154;47.548;18.828;2024-03-08T02:46:40;75913.03;;;-145.55;100.00
51239;BME280;38154;47.548;18.828;2024-03-08T02:49:06;75909.06;;;-145.55;100.00
51239;BME280;38154;47.548;18.828;2024-03-08T02:51:33;75911.03;;;-145.55;100.00
51239;BME280;38154;47.548;18.828;2024-03-08T02:54:00;75911.03;;;-145.55;100.00
51239;BME280;38154;47.548;18.828;2024-03-08T02:56:26;75917.00;;;-145.55;100.00
51239;BME280;38154;47.548;18.828;2024-03-08T02:58:52;75919.00;;;-145.55;100.00
51239;BME280;38154;47.548;18.828;2024-03-08T03:01:17;75915.03;;;-145.55;100.00
51239;BME280;38154;47.548;18.828;2024-03-08T03:03:45;75913.03;;;-145.55;100.00
51239;BME280;38154;47.548;18.828;2024-03-08T03:06:12;75909.06;;;-145.55;100.00
51239;BME280;38154;47.548;18.828;2024-03-08T03:08:38;75913.03;;;-145.55;100.00
51239;BME280;38154;47.548;18.828;2024-03-08T03:11:04;75913.03;;;-145.55;100.00
51239;BME280;38154;47.548;18.828;2024-03-08T03:13:29;75907.06;;;-145.55;100.00
51239;BME280;38154;47.548;18.828;2024-03-08T03:15:55;75903.06;;;-145.55;100.00
51239;BME280;38154;47.548;18.828;2024-03-08T03:18:23;75907.06;;;-145.55;100.00
51239;BME280;38154;47.548;18.828;2024-03-08T03:20:49;75905.06;;;-145.55;100.00
51239;BME280;38154;47.548;18.828;2024-03-08T03:23:14;75911.03;;;-145.55;100.00
51239;BME280;38154;47.548;18.828;2024-03-08T03:25:46;75907.06;;;-145.55;100.00
51239;BME280;38154;47.548;18.828;2024-03-08T03:28:11;75903.06;;;-145.55;100.00
51239;BME280;38154;47.548;18.828;2024-03-08T03:30:40;75905.06;;;-145.55;100.00
51239;BME280;38154;47.548;18.828;2024-03-08T03:33:05;75909.06;;;-145.55;100.00
51239;BME280;38154;47.548;18.828;2024-03-08T03:35:32;75903.06;;;-145.55;100.00
51239;BME280;38154;47.548;18.828;2024-03-08T03:37:58;75909.06;;;-145.55;100.00
51239;BME280;38154;47.548;18.828;2024-03-08T03:40:33;75913.03;;;-145.55;100.00
51239;BME280;38154;47.548;18.828;2024-03-08T03:42:59;75917.00;;;-145.55;100.00
51239;BME280;38154;47.548;18.828;2024-03-08T03:45:25;75913.03;;;-145.55;100.00
51239;BME280;38154;47.548;18.828;2024-03-08T03:47:50;75922.97;;;-145.55;100.00
51239;BME280;38154;47.548;18.828;2024-03-08T03:50:17;75913.03;;;-145.55;100.00
51239;BME280;38154;47.548;18.828;2024-03-08T03:52:47;75911.03;;;-145.55;100.00
51239;BME280;38154;47.548;18.828;2024-03-08T03:55:13;75903.06;;;-145.55;100.00
51239;BME280;38154;47.548;18.828;2024-03-08T03:57:39;75907.06;;;-145.55;100.00
51239;BME280;38154;47.548;18.828;2024-03-08T04:00:06;75905.06;;;-145.55;100.00
51239;BME280;38154;47.548;18.828;2024-03-08T04:02:31;75907.06;;;-145.55;100.00
51239;BME280;38154;47.548;18.828;2024-03-08T04:04:57;75909.06;;;-145.55;100.00
51239;BME280;38154;47.548;18.828;2024-03-08T04:07:23;75913.03;;;-145.55;100.00
51239;BME280;38154;47.548;18.828;2024-03-08T04:09:48;75919.00;;;-145.55;100.00
51239;BME280;38154;47.548;18.828;2024-03-08T04:12:14;75922.97;;;-145.55;100.00
51239;BME280;38154;47.548;18.828;2024-03-08T04:14:41;75917.00;;;-145.55;100.00
51239;BME280;38154;47.548;18.828;2024-03-08T04:17:07;75921.00;;;-145.55;100.00
51239;BME280;38154;47.548;18.828;2024-03-08T04:19:34;75924.97;;;-145.55;100.00
51239;BME280;38154;47.548;18.828;2024-03-08T04:22:00;75938.91;;;-145.55;100.00
51239;BME280;38154;47.548;18.828;2024-03-08T04:24:26;75928.94;;;-145.55;100.00
51239;BME280;38154;47.548;18.828;2024-03-08T04:26:52;75928.94;;;-145.55;100.00
51239;BME280;38154;47.548;18.828;2024-03-08T04:29:18;75932.94;;;-145.55;100.00
51239;BME280;38154;47.548;18.828;2024-03-08T04:31:44;75930.94;;;-145.55;100.00
51239;BME280;38154;47.548;18.828;2024-03-08T04:34:10;75924.97;;;-145.55;100.00
51239;BME280;38154;47.548;18.828;2024-03-08T04:36:36;75932.94;;;-145.55;100.00
51239;BME280;38154;47.548;18.828;2024-03-08T04:39:02;75932.94;;;-145.55;100.00
51239;BME280;38154;47.548;18.828;2024-03-08T04:41:27;75934.94;;;-145.55;100.00
51239;BME280;38154;47.548;18.828;2024-03-08T04:43:53;75934.94;;;-145.55;100.00
51239;BME280;38154;47.548;18.828;2024-03-08T04:46:19;75932.94;;;-145.55;100.00
51239;BME280;38154;47.548;18.828;2024-03-08T04:48:44;75934.94;;;-145.55;100.00
51239;BME280;38154;47.548;18.828;2024-03-08T04:51:10;75936.91;;;-145.55;100.00
51239;BME280;38154;47.548;18.828;2024-03-08T04:53:36;75948.84;;;-145.55;100.00
51239;BME280;38154;47.548;18.828;2024-03-08T04:56:01;75930.94;;;-145.55;100.00
51239;BME280;38154;47.548;18.828;2024-03-08T04:58:32;75932.94;;;-145.55;100.00
51239;BME280;38154;47.548;18.828;2024-03-08T05:01:00;75940.91;;;-145.55;100.00
51239;BME280;38154;47.548;18.828;2024-03-08T05:03:26;75934.94;;;-145.55;100.00
51239;BME280;38154;47.548;18.828;2024-03-08T05:05:51;75930.94;;;-145.55;100.00
51239;BME280;38154;47.548;18.828;2024-03-08T05:08:17;75940.91;;;-145.55;100.00
51239;BME280;38154;47.548;18.828;2024-03-08T05:10:44;75930.94;;;-145.55;100.00
51239;BME280;38154;47.548;18.828;2024-03-08T05:13:09;75919.00;;;-145.55;100.00
51239;BME280;38154;47.548;18.828;2024-03-08T05:15:35;75922.97;;;-145.55;100.00
51239;BME280;38154;47.548;18.828;2024-03-08T05:18:02;75913.03;;;-145.55;100.00
51239;BME280;38154;47.548;18.828;2024-03-08T05:20:27;75907.06;;;-145.55;100.00
51239;BME280;38154;47.548;18.828;2024-03-08T05:22:53;75921.00;;;-145.55;100.00
51239;BME280;38154;47.548;18.828;2024-03-08T05:25:18;75919.00;;;-145.55;100.00
51239;BME280;38154;47.548;18.828;2024-03-08T05:27:44;75919.00;;;-145.55;100.00
51239;BME280;38154;47.548;18.828;2024-03-08T05:30:10;75926.97;;;-145.55;100.00
51239;BME280;38154;47.548;18.828;2024-03-08T05:32:41;75924.97;;;-145.55;100.00
51239;BME280;38154;47.548;18.828;2024-03-08T05:35:12;75928.94;;;-145.55;100.00
51239;BME280;38154;47.548;18.828;2024-03-08T05:37:41;75934.94;;;-145.55;100.00
51239;BME280;38154;47.548;18.828;2024-03-08T05:40:07;75934.94;;;-145.55;100.00
51239;BME280;38154;47.548;18.828;2024-03-08T05:42:35;75936.91;;;-145.55;100.00
51239;BME280;38154;47.548;18.828;2024-03-08T05:45:02;75922.97;;;-145.55;100.00
51239;BME280;38154;47.548;18.828;2024-03-08T05:47:28;75915.03;;;-145.55;100.00
51239;BME280;38154;47.548;18.828;2024-03-08T05:49:54;75921.00;;;-145.55;100.00
51239;BME280;38154;47.548;18.828;2024-03-08T05:52:20;75921.00;;;-145.55;100.00
51239;BME280;38154;47.548;18.828;2024-03-08T05:54:45;75921.00;;;-145.55;100.00
51239;BME280;38154;47.548;18.828;2024-03-08T05:57:12;75919.00;;;-145.55;100.00
51239;BME280;38154;47.548;18.828;2024-03-08T05:59:39;75922.97;;;-145.55;100.00
51239;BME280;38154;47.548;18.828;2024-03-08T06:02:05;75922.97;;;-145.55;100.00
51239;BME280;38154;47.548;18.828;2024-03-08T06:04:30;75926.97;;;-145.55;100.00
51239;BME280;38154;47.548;18.828;2024-03-08T06:06:56;75926.97;;;-145.55;100.00
51239;BME280;38154;47.548;18.828;2024-03-08T06:09:24;75946.88;;;-145.55;100.00
51239;BME280;38154;47.548;18.828;2024-03-08T06:11:50;75952.84;;;-145.55;100.00
51239;BME280;38154;47.548;18.828;2024-03-08T06:14:16;75936.91;;;-145.55;100.00
51239;BME280;38154;47.548;18.828;2024-03-08T06:16:46;75934.94;;;-145.55;100.00
51239;BME280;38154;47.548;18.828;2024-03-08T06:19:12;75940.91;;;-145.55;100.00
51239;BME280;38154;47.548;18.828;2024-03-08T06:21:38;75944.88;;;-145.55;100.00
51239;BME280;38154;47.548;18.828;2024-03-08T06:24:04;75942.88;;;-145.55;100.00
51239;BME280;38154;47.548;18.828;2024-03-08T06:26:30;75942.88;;;-145.55;100.00
51239;BME280;38154;47.548;18.828;2024-03-08T06:28:55;75938.91;;;-145.55;100.00
51239;BME280;38154;47.548;18.828;2024-03-08T06:31:21;75924.97;;;-145.55;100.00
51239;BME280;38154;47.548;18.828;2024-03-08T06:33:47;75934.94;;;-145.55;100.00
51239;BME280;38154;47.548;18.828;2024-03-08T06:36:18;75938.91;;;-145.55;100.00
51239;BME280;38154;47.548;18.828;2024-03-08T06:38:49;75928.94;;;-145.55;100.00
51239;BME280;38154;47.548;18.828;2024-03-08T06:41:15;75936.91;;;-145.55;100.00
51239;BME280;38154;47.548;18.828;2024-03-08T06:43:41;75922.97;;;-145.55;100.00
51239;BME280;38154;47.548;18.828;2024-03-08T06:46:07;75919.00;;;-145.55;100.00
51239;BME280;38154;47.548;18.828;2024-03-08T06:48:33;75905.06;;;-145.55;100.00
51239;BME280;38154;47.548;18.828;2024-03-08T06:50:58;75901.09;;;-145.55;100.00
51239;BME280;38154;47.548;18.828;2024-03-08T06:53:24;75891.13;;;-145.55;100.00
51239;BME280;38154;47.548;18.828;2024-03-08T06:55:50;75887.16;;;-145.55;100.00
51239;BME280;38154;47.548;18.828;2024-03-08T06:58:16;75887.16;;;-145.55;100.00
51239;BME280;38154;47.548;18.828;2024-03-08T07:00:41;75897.09;;;-145.55;100.00
51239;BME280;38154;47.548;18.828;2024-03-08T07:03:08;75895.13;;;-145.55;100.00
51239;BME280;38154;47.548;18.828;2024-03-08T07:05:37;75875.22;;;-145.55;100.00
51239;BME280;38154;47.548;18.828;2024-03-08T07:08:03;75855.31;;;-145.55;100.00
51239;BME280;38154;47.548;18.828;2024-03-08T07:10:29;75849.34;;;-145.55;100.00
51239;BME280;38154;47.548;18.828;2024-03-08T07:12:54;75847.34;;;-145.55;100.00
51239;BME280;38154;47.548;18.828;2024-03-08T07:15:20;75859.28;;;-145.55;100.00
51239;BME280;38154;47.548;18.828;2024-03-08T07:17:46;75843.38;;;-145.55;100.00
51239;BME280;38154;47.548;18.828;2024-03-08T07:20:13;75823.47;;;-145.55;100.00
51239;BME280;38154;47.548;18.828;2024-03-08T07:22:39;75803.56;;;-145.55;100.00
51239;BME280;38154;47.548;18.828;2024-03-08T07:25:06;75773.72;;;-145.55;100.00
51239;BME280;38154;47.548;18.828;2024-03-08T07:27:57;75781.66;;;-145.55;100.00
51239;BME280;38154;47.548;18.828;2024-03-08T07:30:24;75787.63;;;-145.55;100.00
51239;BME280;38154;47.548;18.828;2024-03-08T07:33:08;75795.59;;;-145.55;100.00
51239;BME280;38154;47.548;18.828;2024-03-08T07:35:37;75795.59;;;-145.55;100.00
51239;BME280;38154;47.548;18.828;2024-03-08T07:38:06;75805.56;;;-145.55;100.00
51239;BME280;38154;47.548;18.828;2024-03-08T07:40:34;75805.56;;;-145.55;100.00
51239;BME280;38154;47.548;18.828;2024-03-08T07:43:00;75795.59;;;-145.55;100.00
51239;BME280;38154;47.548;18.828;2024-03-08T07:45:26;75795.59;;;-145.55;100.00
51239;BME280;38154;47.548;18.828;2024-03-08T07:47:52;75789.63;;;-145.55;100.00
51239;BME280;38154;47.548;18.828;2024-03-08T07:50:18;75763.75;;;-145.55;100.00
51239;BME280;38154;47.548;18.828;2024-03-08T07:52:44;75759.78;;;-145.55;100.00
51239;BME280;38154;47.548;18.828;2024-03-08T07:55:10;75761.78;;;-145.55;100.00
51239;BME280;38154;47.548;18.828;2024-03-08T07:57:36;75749.81;;;-145.55;100.00
51239;BME280;38154;47.548;18.828;2024-03-08T08:00:04;75731.91;;;-145.55;100.00
51239;BME280;38154;47.548;18.828;2024-03-08T08:02:32;75716.00;;;-145.55;100.00
51239;BME280;38154;47.548;18.828;2024-03-08T08:04:58;75694.09;;;-145.55;99.07
51239;BME280;38154;47.548;18.828;2024-03-08T08:07:24;75666.22;;;-145.55;98.69
51239;BME280;38154;47.548;18.828;2024-03-08T08:09:50;75654.28;;;-145.55;97.37
51239;BME280;38154;47.548;18.828;2024-03-08T08:12:15;75672.22;;;-145.55;96.51
51239;BME280;38154;47.548;18.828;2024-03-08T08:14:41;75688.13;;;-145.55;97.69
51239;BME280;38154;47.548;18.828;2024-03-08T08:17:07;75668.22;;;-145.55;98.50
51239;BME280;38154;47.548;18.828;2024-03-08T08:19:34;75668.22;;;-145.55;98.16
51239;BME280;38154;47.548;18.828;2024-03-08T08:22:03;75632.41;;;-145.55;97.41
51239;BME280;38154;47.548;18.828;2024-03-08T08:24:29;75612.50;;;-145.55;97.35
51239;BME280;38154;47.548;18.828;2024-03-08T08:26:54;75550.81;;;-145.55;94.43
51239;BME280;38154;47.548;18.828;2024-03-08T08:29:21;75530.91;;;-145.55;94.25
51239;BME280;38154;47.548;18.828;2024-03-08T08:31:47;75522.94;;;-145.55;92.92
51239;BME280;38154;47.548;18.828;2024-03-08T08:34:13;75528.91;;;-145.55;92.46
51239;BME280;38154;47.548;18.828;2024-03-08T08:36:39;75558.75;;;-145.55;93.45
51239;BME280;38154;47.548;18.828;2024-03-08T08:39:05;75568.72;;;-145.55;94.10
51239;BME280;38154;47.548;18.828;2024-03-08T08:41:37;75616.47;;;-145.55;95.09
51239;BME280;38154;47.548;18.828;2024-03-08T08:44:03;75650.31;;;-145.55;97.63
51239;BME280;38154;47.548;18.828;2024-03-08T08:46:29;75670.22;;;-145.55;97.92
51239;BME280;38154;47.548;18.828;2024-03-08T08:48:54;75674.19;;;-145.55;99.25
51239;BME280;38154;47.548;18.828;2024-03-08T08:51:20;75678.19;;;-145.55;97.95
51239;BME280;38154;47.548;18.828;2024-03-08T08:53:46;75698.06;;;-145.55;98.88
51239;BME280;38154;47.548;18.828;2024-03-08T08:56:13;75666.22;;;-145.55;98.73
51239;BME280;38154;47.548;18.828;2024-03-08T08:58:42;75660.25;;;-145.55;98.25
51239;BME280;38154;47.548;18.828;2024-03-08T09:01:08;75666.22;;;-145.55;98.62
51239;BME280;38154;47.548;18.828;2024-03-08T09:03:35;75648.31;;;-145.55;97.26
51239;BME280;38154;47.548;18.828;2024-03-08T09:06:05;75648.31;;;-145.55;96.44
51239;BME280;38154;47.548;18.828;2024-03-08T09:08:31;75638.38;;;-145.55;97.52
51239;BME280;38154;47.548;18.828;2024-03-08T09:10:58;75650.31;;;-145.55;97.20
51239;BME280;38154;47.548;18.828;2024-03-08T09:13:25;75656.28;;;-145.55;98.04
51239;BME280;38154;47.548;18.828;2024-03-08T09:15:51;75660.25;;;-145.55;97.61
51239;BME280;38154;47.548;18.828;2024-03-08T09:18:18;75656.28;;;-145.55;96.71
51239;BME280;38154;47.548;18.828;2024-03-08T09:20:44;75668.22;;;-145.55;96.90
51239;BME280;38154;47.548;18.828;2024-03-08T09:23:10;75666.22;;;-145.55;97.62
51239;BME280;38154;47.548;18.828;2024-03-08T09:25:36;75684.16;;;-145.55;98.18
51239;BME280;38154;47.548;18.828;2024-03-08T09:28:01;75700.06;;;-145.55;99.28
51239;BME280;38154;47.548;18.828;2024-03-08T09:30:28;75710.03;;;-145.55;100.00
51239;BME280;38154;47.548;18.828;2024-03-08T09:32:54;75714.00;;;-145.55;100.00
51239;BME280;38154;47.548;18.828;2024-03-08T09:35:19;75719.97;;;-145.55;100.00
51239;BME280;38154;47.548;18.828;2024-03-08T09:37:45;75743.84;;;-145.55;100.00
51239;BME280;38154;47.548;18.828;2024-03-08T09:40:13;75731.91;;;-145.55;100.00
51239;BME280;38154;47.548;18.828;2024-03-08T09:42:41;75733.91;;;-145.55;100.00
51239;BME280;38154;47.548;18.828;2024-03-08T09:45:08;75719.97;;;-145.55;100.00
51239;BME280;38154;47.548;18.828;2024-03-08T09:47:36;75710.03;;;-145.55;100.00
51239;BME280;38154;47.548;18.828;2024-03-08T09:50:05;75702.06;;;-145.55;100.00
51239;BME280;38154;47.548;18.828;2024-03-08T09:52:31;75688.13;;;-145.55;100.00
51239;BME280;38154;47.548;18.828;2024-03-08T09:54:58;75688.13;;;-145.55;100.00
51239;BME280;38154;47.548;18.828;2024-03-08T09:57:25;75686.13;;;-145.55;100.00
51239;BME280;38154;47.548;18.828;2024-03-08T09:59:51;75678.19;;;-145.55;100.00
51239;BME280;38154;47.548;18.828;2024-03-08T10:02:16;75680.16;;;-145.55;100.00
51239;BME280;38154;47.548;18.828;2024-03-08T10:04:42;75676.19;;;-145.55;100.00
51239;BME280;38154;47.548;18.828;2024-03-08T10:07:08;75686.13;;;-145.55;100.00
51239;BME280;38154;47.548;18.828;2024-03-08T10:09:33;75690.13;;;-145.55;100.00
51239;BME280;38154;47.548;18.828;2024-03-08T10:11:59;75672.22;;;-145.55;100.00
51239;BME280;38154;47.548;18.828;2024-03-08T10:14:25;75670.22;;;-145.55;100.00
51239;BME280;38154;47.548;18.828;2024-03-08T10:16:52;75652.31;;;-145.55;100.00
51239;BME280;38154;47.548;18.828;2024-03-08T10:19:17;75634.41;;;-145.55;98.77
51239;BME280;38154;47.548;18.828;2024-03-08T10:21:49;75650.31;;;-145.55;98.87
51239;BME280;38154;47.548;18.828;2024-03-08T10:24:15;75642.34;;;-145.55;99.27
51239;BME280;38154;47.548;18.828;2024-03-08T10:26:41;75614.50;;;-145.55;99.81
51239;BME280;38154;47.548;18.828;2024-03-08T10:29:09;75604.53;;;-145.55;97.92
51239;BME280;38154;47.548;18.828;2024-03-08T10:31:34;75596.59;;;-145.55;96.55
51239;BME280;38154;47.548;18.828;2024-03-08T10:34:00;75604.53;;;-145.55;96.24
51239;BME280;38154;47.548;18.828;2024-03-08T10:36:26;75566.72;;;-145.55;96.58
51239;BME280;38154;47.548;18.828;2024-03-08T10:38:53;75574.69;;;-145.55;95.45
51239;BME280;38154;47.548;18.828;2024-03-08T10:41:19;75578.66;;;-145.55;95.17
51239;BME280;38154;47.548;18.828;2024-03-08T10:49:06;75534.88;;;-145.55;92.83
51239;BME280;38154;47.548;18.828;2024-03-08T10:51:33;75520.94;;;-145.55;93.52
51239;BME280;38154;47.548;18.828;2024-03-08T10:54:00;75511.00;;;-145.55;93.25
51239;BME280;38154;47.548;18.828;2024-03-08T10:56:28;75526.94;;;-145.55;92.58
51239;BME280;38154;47.548;18.828;2024-03-08T10:58:54;75544.84;;;-145.55;93.17
51239;BME280;38154;47.548;18.828;2024-03-08T11:01:20;75558.75;;;-145.55;92.81
51239;BME280;38154;47.548;18.828;2024-03-08T11:03:47;75546.81;;;-145.55;93.32
51239;BME280;38154;47.548;18.828;2024-03-08T11:06:17;75534.88;;;-145.55;91.02
51239;BME280;38154;47.548;18.828;2024-03-08T11:08:49;75483.16;;;-145.55;91.49
51239;BME280;38154;47.548;18.828;2024-03-08T11:11:53;75471.19;;;-145.55;89.04
51239;BME280;38154;47.548;18.828;2024-03-08T11:16:56;75429.41;;;-145.55;90.19
51239;BME280;38154;47.548;18.828;2024-03-08T11:19:27;75419.47;;;-145.55;89.13
51239;BME280;38154;47.548;18.828;2024-03-08T11:21:57;75391.59;;;-145.55;89.15
51239;BME280;38154;47.548;18.828;2024-03-08T11:24:23;75371.69;;;-145.55;86.63
51239;BME280;38154;47.548;18.828;2024-03-08T11:26:49;75385.63;;;-145.55;87.03
51239;BME280;38154;47.548;18.828;2024-03-08T11:32:12;75431.41;;;-145.55;90.14
51239;BME280;38154;47.548;18.828;2024-03-08T11:34:42;75423.44;;;-145.55;89.22
51239;BME280;38154;47.548;18.828;2024-03-08T11:37:14;75449.31;;;-145.55;89.80
51239;BME280;38154;47.548;18.828;2024-03-08T11:39:46;75463.25;;;-145.55;89.63
51239;BME280;38154;47.548;18.828;2024-03-08T11:42:12;75477.16;;;-145.55;90.84
51239;BME280;38154;47.548;18.828;2024-03-08T11:44:38;75493.09;;;-145.55;92.21
51239;BME280;38154;47.548;18.828;2024-03-08T11:47:10;75487.13;;;-145.55;90.90
51239;BME280;38154;47.548;18.828;2024-03-08T11:49:36;75501.06;;;-145.55;92.14
51239;BME280;38154;47.548;18.828;2024-03-08T11:52:02;75528.91;;;-145.55;92.14
51239;BME280;38154;47.548;18.828;2024-03-08T11:54:28;75526.94;;;-145.55;92.77
51239;BME280;38154;47.548;18.828;2024-03-08T11:56:56;75530.91;;;-145.55;93.07
51239;BME280;38154;47.548;18.828;2024-03-08T11:59:28;75524.94;;;-145.55;93.53
51239;BME280;38154;47.548;18.828;2024-03-08T12:01:58;75518.97;;;-145.55;93.96
51239;BME280;38154;47.548;18.828;2024-03-08T12:04:24;75546.81;;;-145.55;95.74
51239;BME280;38154;47.548;18.828;2024-03-08T12:06:50;75526.94;;;-145.55;94.91
51239;BME280;38154;47.548;18.828;2024-03-08T12:09:15;75516.97;;;-145.55;94.78
51239;BME280;38154;47.548;18.828;2024-03-08T12:11:41;75485.13;;;-145.55;93.46
51239;BME280;38154;47.548;18.828;2024-03-08T12:14:08;75483.16;;;-145.55;93.21
51239;BME280;38154;47.548;18.828;2024-03-08T12:16:34;75469.22;;;-145.55;93.14
51239;BME280;38154;47.548;18.828;2024-03-08T12:19:01;75477.16;;;-145.55;93.22
51239;BME280;38154;47.548;18.828;2024-03-08T12:21:31;75481.16;;;-145.55;93.52
51239;BME280;38154;47.548;18.828;2024-03-08T12:24:08;75493.09;;;-145.55;93.92
51239;BME280;38154;47.548;18.828;2024-03-08T12:26:35;75503.03;;;-145.55;93.10
51239;BME280;38154;47.548;18.828;2024-03-08T12:31:48;75423.44;;;-145.55;90.74
51239;BME280;38154;47.548;18.828;2024-03-08T12:34:16;75423.44;;;-145.55;90.02
51239;BME280;38154;47.548;18.828;2024-03-08T12:36:45;75421.44;;;-145.55;90.28